Flight Track Log - Related Links

Times and Time Zones

All times are in EDT time to prevent confusion due to time zone crossing. See the N818GM flight status page for this flight to view local times or setup timezone preferences in your user account.

Time Position Orientation Groundspeed Altitude Reporting Facility
EDT Latitude Longitude Course Direction KTS MPH feet Rate Location/Type
Fri 04:33:48 PM 29.6533 -82.2903 187° South 137 158 1,400  Level Jacksonville Center
Fri 04:34:43 PM 29.6200 -82.2811 167° South 155 178 2,000 672 Climbing Jacksonville Center
Fri 04:35:44 PM 29.5803 -82.2789 177° South 142 163 2,700 750 Climbing Jacksonville Center
Fri 04:36:51 PM 29.5386 -82.2744 175° South 138 159 3,600 750 Climbing Jacksonville Center
Fri 04:37:52 PM 29.5008 -82.2675 171° South 137 158 4,300 689 Climbing Jacksonville Center
Fri 04:38:00 PM 29.4265 -82.2366 174° South  Level FlightAware Approximate
Fri 04:38:53 PM 29.4611 -82.2628 174° South 137 158 5,000  Level Jacksonville Center
Fri 04:39:48 PM 29.4194 -82.2583 175° South 164 189 5,000  Level Jacksonville Center
Fri 04:40:49 PM 29.3756 -82.2539 175° South 165 190 5,000 197 Level Jacksonville Center
Fri 04:41:50 PM 29.3317 -82.2494 175° South 154 177 5,400 443 Climbing Jacksonville Center
Fri 04:42:51 PM 29.2878 -82.2425 172° South 146 168 5,900 590 Climbing Jacksonville Center
Fri 04:43:52 PM 29.2481 -82.2381 174° South 142 163 6,600 541 Climbing Jacksonville Center
Fri 04:44:53 PM 29.2106 -82.2336 174° South 140 161 7,000 197 Climbing Jacksonville Center
Fri 04:45:54 PM 29.1689 -82.2267 172° South 153 176 7,000  Level Jacksonville Center
Fri 04:46:55 PM 29.1228 -82.2200 173° South 167 192 7,000 -49 Level Jacksonville Center
Fri 04:47:56 PM 29.0728 -82.2178 178° South 168 193 6,900 -47 Descending Jacksonville Center
Fri 04:49:03 PM 29.0247 -82.2278 190° South 163 188 6,900 47 Level Jacksonville Center
Fri 04:50:04 PM 28.9853 -82.2492 205° Southwest 160 184 7,000 49 Climbing Jacksonville Center
Fri 04:51:05 PM 28.9436 -82.2708 204° Southwest 160 184 7,000 49 Level Jacksonville Center
Fri 04:52:06 PM 28.8978 -82.2903 200° South 161 185 7,100 98 Climbing Jacksonville Center
Fri 04:53:07 PM 28.8581 -82.3000 192° South 155 178 7,200 148 Climbing Jacksonville Center
Fri 04:54:08 PM 28.8164 -82.2836 161° South 160 184 7,400 Climbing Jacksonville Center
Fri 04:56:00 PM 28.7447 -82.2465 150° Southeast  Level FlightAware Approximate
Fri 05:03:00 PM 28.4657 -82.1324 166° South  Level FlightAware Approximate
Fri 05:04:00 PM 28.4242 -82.1210 166° South  Level FlightAware Approximate
Fri 05:05:00 PM 28.3826 -82.1095 166° South  Level FlightAware Approximate
Fri 05:06:00 PM 28.3411 -82.0981 166° South  Level FlightAware Approximate
Fri 05:07:00 PM 28.2995 -82.0866 166° South  Level FlightAware Approximate
Fri 05:08:00 PM 28.2579 -82.0752 166° South  Level FlightAware Approximate
Fri 05:09:00 PM 28.2164 -82.0638 166° South  Level FlightAware Approximate
Fri 05:10:00 PM 28.1748 -82.0524 166° South  Level FlightAware Approximate
Fri 05:11:00 PM 28.1332 -82.0410 166° South  Level FlightAware Approximate
Fri 05:12:00 PM 28.0917 -82.0296 166° South  Level FlightAware Approximate
Fri 05:13:00 PM 28.0501 -82.0182 166° South  Level FlightAware Approximate
Fri 05:14:00 PM 28.0085 -82.0069 166° South  Level FlightAware Approximate
Fri 05:15:00 PM 27.9682 -81.9916 154° Southeast  Level FlightAware Approximate
Fri 05:16:00 PM 27.9298 -81.9703 154° Southeast  Level FlightAware Approximate
Fri 05:17:00 PM 27.8915 -81.9489 154° Southeast  Level FlightAware Approximate
Fri 05:18:00 PM 27.8531 -81.9276 154° Southeast  Level FlightAware Approximate
Fri 05:19:00 PM 27.8143 -81.9071 156° South  Level FlightAware Approximate
Fri 05:20:00 PM 27.7752 -81.8875 156° South  Level FlightAware Approximate
Fri 05:21:00 PM 27.7362 -81.8680 156° South  Level FlightAware Approximate
Fri 05:22:00 PM 27.6971 -81.8484 156° South  Level FlightAware Approximate
Fri 05:23:00 PM 27.6580 -81.8288 156° South  Level FlightAware Approximate
Fri 05:24:00 PM 27.6189 -81.8093 156° South  Level FlightAware Approximate
Fri 05:25:00 PM 27.5798 -81.7898 156° South  Level FlightAware Approximate
Fri 05:26:00 PM 27.5406 -81.7703 156° South  Level FlightAware Approximate
Fri 05:27:00 PM 27.5015 -81.7508 156° South  Level FlightAware Approximate
Fri 05:28:00 PM 27.4637 -81.7282 152° Southeast  Level FlightAware Approximate
Fri 05:29:00 PM 27.4260 -81.7056 152° Southeast  Level FlightAware Approximate
Fri 05:30:00 PM 27.3876 -81.6843 154° Southeast  Level FlightAware Approximate
Fri 05:31:00 PM 27.3490 -81.6635 154° Southeast  Level FlightAware Approximate
Fri 05:32:00 PM 27.3105 -81.6428 154° Southeast  Level FlightAware Approximate
Fri 05:32:07 PM 27.2833 -82.5667 195° South 173 199 7,500  Level Tampa TRACON
Fri 05:33:00 PM 27.2719 -81.6220 154° Southeast  Level FlightAware Approximate
Fri 05:33:07 PM 27.2500 -82.5333 138° Southeast 173 199 7,500  Level Tampa TRACON
Fri 05:34:00 PM 27.2333 -81.6012 154° Southeast  Level FlightAware Approximate
Fri 05:34:07 PM 27.2000 -82.5167 163° South 171 197 7,500  Level Tampa TRACON
Fri 05:35:00 PM 27.1943 -81.5850 195° South  Level FlightAware Approximate
Fri 05:35:07 PM 27.1667 -82.4833 138° Southeast 171 197 7,500  Level Tampa TRACON
Fri 05:36:00 PM 27.1530 -81.5974 195° South  Level FlightAware Approximate
Fri 05:36:13 PM 27.1167 -82.4500 149° Southeast 169 194 7,400  Level Tampa TRACON
Fri 05:37:00 PM 27.1117 -81.6098 195° South  Level FlightAware Approximate
Fri 05:37:07 PM 27.0833 -82.4333 156° South 173 199 7,500  Level Tampa TRACON
Fri 05:38:07 PM 27.0500 -82.4000 138° Southeast 171 197 7,500  Level Tampa TRACON
Fri 05:39:13 PM 27.0000 -82.3667 149° Southeast 171 197 7,500  Level Tampa TRACON
Fri 05:41:00 PM 26.9274 -82.3068 145° Southeast  Level FlightAware Approximate
Fri 05:48:00 PM 26.6364 -82.0828 145° Southeast  Level FlightAware Approximate
Fri 05:49:00 PM 26.5947 -82.0509 146° Southeast  Level FlightAware Approximate
Fri 05:50:00 PM 26.5531 -82.0191 146° Southeast  Level FlightAware Approximate
Fri 05:51:00 PM 26.5121 -81.9863 144° Southeast  Level FlightAware Approximate
Fri 05:52:00 PM 26.4711 -81.9535 144° Southeast  Level FlightAware Approximate
Fri 05:53:00 PM 26.4298 -81.9210 145° Southeast  Level FlightAware Approximate
Fri 05:54:00 PM 26.3886 -81.8886 145° Southeast  Level FlightAware Approximate
Fri 05:55:00 PM 26.3474 -81.8561 145° Southeast  Level FlightAware Approximate
Fri 05:56:00 PM 26.3061 -81.8238 145° Southeast  Level FlightAware Approximate
Fri 05:57:00 PM 26.2649 -81.7914 145° Southeast  Level FlightAware Approximate
Fri 05:58:00 PM 26.2214 -81.7667 180° South  Level FlightAware Approximate
Fri 05:59:00 PM 26.1710 -81.7667 180° South  Level FlightAware Approximate
Fri 06:00:00 PM 26.1500 -81.7667 180° South  Level FlightAware Approximate
Fri 06:01:00 PM 26.1524 -81.7756 180° South  Level Estimated
Fri 06:02:00 PM 26.1524 -81.7756 180° South  Level Estimated
Fri 06:03:00 PM 26.1524 -81.7756 180° South  Level Estimated
Fri 06:04:00 PM 26.1524 -81.7756 180° South  Level Estimated
Fri 06:05:00 PM 26.1524 -81.7756 180° South  Level Estimated
Fri 06:06:00 PM 26.1524 -81.7756 180° South  Level Estimated
Fri 06:07:00 PM 26.1524 -81.7756 180° South  Level Estimated
Fri 06:08:00 PM 26.1524 -81.7756 180° South  Level Estimated
Fri 06:09:00 PM 26.1524 -81.7756 180° South  Level Estimated
Fri 06:10:00 PM 26.1524 -81.7756 180° South  Level Estimated
Fri 06:11:00 PM 26.1524 -81.7756 180° South  Level Estimated
Fri 06:12:00 PM 26.1524 -81.7756 180° South  Level Estimated
Fri 06:13:00 PM 26.1524 -81.7756 180° South  Level Estimated
Fri 06:14:00 PM 26.1524 -81.7756 180° South  Level Estimated

Login

Don't have an account? Register now (free) for customized features, flight alerts, and more!